createdAt,value
2022-09-24T00:00:21.130Z,62.94
2022-09-24T00:03:12.076Z,62.93
2022-09-24T00:05:47.075Z,62.97
2022-09-24T00:08:19.832Z,62.89
2022-09-24T00:10:51.047Z,62.95
2022-09-24T00:13:21.529Z,62.92
2022-09-24T00:15:55.079Z,62.88
2022-09-24T00:18:26.059Z,62.84
2022-09-24T00:20:56.705Z,62.74
2022-09-24T00:23:28.397Z,62.80
2022-09-24T00:26:16.209Z,62.90
2022-09-24T00:28:52.650Z,62.88
2022-09-24T00:31:23.279Z,62.98
2022-09-24T00:33:54.727Z,62.97
2022-09-24T00:36:25.554Z,62.92
2022-09-24T00:38:58.836Z,62.95
2022-09-24T00:41:34.730Z,63.02
2022-09-24T00:44:42.767Z,63.03
2022-09-24T00:47:28.949Z,62.94
2022-09-24T00:50:33.172Z,62.97
2022-09-24T00:53:17.443Z,62.87
2022-09-24T00:55:52.263Z,62.88
2022-09-24T00:58:25.038Z,62.81
2022-09-24T01:01:02.264Z,62.76
2022-09-24T01:03:34.560Z,62.85
2022-09-24T01:06:05.324Z,62.89
2022-09-24T01:08:36.443Z,62.89
2022-09-24T01:11:31.174Z,62.88
2022-09-24T01:14:24.531Z,62.94
2022-09-24T01:17:30.185Z,62.76
2022-09-24T01:20:09.179Z,62.85
2022-09-24T01:22:51.463Z,62.87
2022-09-24T01:25:35.771Z,62.80
2022-09-24T01:28:31.490Z,62.77
2022-09-24T01:31:10.911Z,62.62
2022-09-24T01:33:41.850Z,62.73
2022-09-24T01:36:13.591Z,62.76
2022-09-24T01:38:47.249Z,62.92
2022-09-24T01:41:19.758Z,62.82
2022-09-24T01:43:51.278Z,62.83
2022-09-24T01:46:23.598Z,62.88
2022-09-24T01:48:56.542Z,63.01
2022-09-24T01:51:42.404Z,63.00
2022-09-24T01:54:24.955Z,62.99
2022-09-24T01:57:05.453Z,63.01
2022-09-24T01:59:45.864Z,62.85
2022-09-24T02:02:43.158Z,62.94
2022-09-24T02:05:32.268Z,62.98
2022-09-24T02:08:16.460Z,62.89
2022-09-24T02:11:01.236Z,62.98
2022-09-24T02:13:40.701Z,62.93
2022-09-24T02:16:16.664Z,62.97
2022-09-24T02:18:50.568Z,63.05
2022-09-24T02:21:23.632Z,62.99
2022-09-24T02:23:59.180Z,63.05
2022-09-24T02:26:29.754Z,62.83
2022-09-24T02:29:01.852Z,62.98
2022-09-24T02:31:35.520Z,63.14
2022-09-24T02:34:25.990Z,63.03
2022-09-24T02:37:12.381Z,63.11
2022-09-24T02:39:43.828Z,63.08
2022-09-24T02:42:16.577Z,63.09
2022-09-24T02:44:48.109Z,63.12
2022-09-24T02:47:19.530Z,63.11
2022-09-24T02:49:51.683Z,62.99
2022-09-24T02:52:22.913Z,63.04
2022-09-24T02:54:54.149Z,63.06
2022-09-24T02:57:24.650Z,62.93
2022-09-24T02:59:55.509Z,62.80
2022-09-24T03:02:26.566Z,62.76
2022-09-24T03:04:57.122Z,62.78
2022-09-24T03:07:30.438Z,62.99
2022-09-24T03:10:01.260Z,63.06
2022-09-24T03:12:31.759Z,62.99
2022-09-24T03:15:02.471Z,63.11
2022-09-24T03:17:34.008Z,63.13
2022-09-24T03:20:05.485Z,63.12
2022-09-24T03:22:37.005Z,63.23
2022-09-24T03:25:08.187Z,63.07
2022-09-24T03:27:40.408Z,62.91
2022-09-24T03:30:29.387Z,63.06
2022-09-24T03:33:00.438Z,62.96
2022-09-24T03:35:31.538Z,63.07
2022-09-24T03:38:02.510Z,63.13
2022-09-24T03:40:34.194Z,63.20
2022-09-24T03:43:07.849Z,63.13
2022-09-24T03:45:40.579Z,63.13
2022-09-24T03:48:12.701Z,63.16
2022-09-24T03:50:45.202Z,63.16
2022-09-24T03:53:17.220Z,63.19
2022-09-24T03:55:58.691Z,63.19
2022-09-24T03:58:29.920Z,63.09
2022-09-24T04:01:00.592Z,63.19
2022-09-24T04:03:31.141Z,63.06
2022-09-24T04:06:02.021Z,63.25
2022-09-24T04:08:33.471Z,63.42
2022-09-24T04:11:06.907Z,63.38
2022-09-24T04:13:41.849Z,63.33
2022-09-24T04:16:16.438Z,63.29
2022-09-24T04:18:50.165Z,63.24
2022-09-24T04:21:21.929Z,63.32
2022-09-24T04:23:52.817Z,63.33
2022-09-24T04:26:23.263Z,63.39
2022-09-24T04:28:54.029Z,63.43
2022-09-24T04:31:24.679Z,63.47
2022-09-24T04:33:56.032Z,63.49
2022-09-24T04:36:27.178Z,63.34
2022-09-24T04:39:00.142Z,63.30
2022-09-24T04:41:31.107Z,63.33
2022-09-24T04:44:05.282Z,63.38
2022-09-24T04:46:37.267Z,63.38
2022-09-24T04:49:10.068Z,63.53
2022-09-24T04:51:42.029Z,63.63
2022-09-24T04:54:13.272Z,63.61
2022-09-24T04:56:44.477Z,63.67
2022-09-24T04:59:15.942Z,63.74
2022-09-24T05:01:47.744Z,63.83
2022-09-24T05:04:18.933Z,63.58
2022-09-24T05:06:49.725Z,63.77
2022-09-24T05:09:21.717Z,63.82
2022-09-24T05:11:52.770Z,63.86
2022-09-24T05:14:23.537Z,63.99
2022-09-24T05:16:54.150Z,63.96
2022-09-24T05:19:24.709Z,63.95
2022-09-24T05:27:08.430Z,64.14
2022-09-24T05:30:23.157Z,64.17
2022-09-24T05:33:20.686Z,64.32
2022-09-24T05:36:00.348Z,64.24
2022-09-24T05:38:33.482Z,64.37
2022-09-24T05:41:11.164Z,64.33
2022-09-24T05:43:44.024Z,64.41
2022-09-24T05:46:19.113Z,64.43
2022-09-24T05:48:50.301Z,64.42
2022-09-24T05:51:21.169Z,64.43
2022-09-24T05:53:54.675Z,64.35
2022-09-24T05:56:25.254Z,64.58
2022-09-24T05:59:12.196Z,64.66
2022-09-24T06:01:51.215Z,64.69
2022-09-24T06:05:22.306Z,64.79
2022-09-24T06:08:22.659Z,64.83
2022-09-24T06:10:52.965Z,64.94
2022-09-24T06:13:23.119Z,64.85
2022-09-24T06:15:53.789Z,64.84
2022-09-24T06:18:25.262Z,64.81
2022-09-24T06:21:03.369Z,64.90
2022-09-24T06:23:37.049Z,64.85
2022-09-24T06:26:14.399Z,64.89
2022-09-24T06:29:08.067Z,65.09
2022-09-24T06:31:40.540Z,65.24
2022-09-24T06:39:16.254Z,65.46
2022-09-24T06:41:47.004Z,65.54
2022-09-24T06:44:19.681Z,65.57
2022-09-24T06:46:51.626Z,65.64
2022-09-24T06:49:22.194Z,65.60
2022-09-24T06:51:55.594Z,65.79
2022-09-24T06:54:26.700Z,65.86
2022-09-24T06:56:57.327Z,65.97
2022-09-24T06:59:29.203Z,65.98
2022-09-24T07:02:00.259Z,66.22
2022-09-24T07:04:30.897Z,66.18
2022-09-24T07:07:18.548Z,66.32
2022-09-24T07:09:51.343Z,66.38
2022-09-24T07:12:25.518Z,66.31
2022-09-24T07:15:01.447Z,66.46
2022-09-24T07:17:34.022Z,66.58
2022-09-24T07:20:05.846Z,66.57
2022-09-24T07:22:41.426Z,66.75
2022-09-24T07:25:14.002Z,66.78
2022-09-24T07:27:44.464Z,66.85
2022-09-24T07:30:18.979Z,66.87
2022-09-24T07:32:50.942Z,66.92
2022-09-24T07:35:24.171Z,66.80
2022-09-24T07:38:05.118Z,66.74
2022-09-24T07:40:35.924Z,66.84
2022-09-24T07:43:15.841Z,67.04
2022-09-24T07:45:52.082Z,67.17
2022-09-24T07:48:26.685Z,67.35
2022-09-24T07:50:57.287Z,67.28
2022-09-24T07:53:28.302Z,67.59
2022-09-24T07:56:04.044Z,67.44
2022-09-24T07:58:36.178Z,67.57
2022-09-24T08:01:12.601Z,67.57
2022-09-24T08:03:47.983Z,67.71
2022-09-24T08:10:57.891Z,67.91
2022-09-24T08:13:28.710Z,67.83
2022-09-24T08:17:39.578Z,67.96
2022-09-24T08:20:31.293Z,67.82
2022-09-24T08:23:10.378Z,67.95
2022-09-24T08:25:42.653Z,67.81
2022-09-24T08:28:13.782Z,67.93
2022-09-24T08:30:45.166Z,67.97
2022-09-24T08:36:18.168Z,68.03
2022-09-24T08:38:51.168Z,68.12
2022-09-24T08:41:30.184Z,68.00
2022-09-24T08:44:13.893Z,68.03
2022-09-24T08:47:26.968Z,68.22
2022-09-24T08:50:07.200Z,68.17
2022-09-24T08:52:54.799Z,68.17
2022-09-24T08:55:40.087Z,67.94
2022-09-24T08:58:27.921Z,68.22
2022-09-24T09:01:14.462Z,67.92
2022-09-24T09:04:20.882Z,68.04
2022-09-24T09:07:28.591Z,67.86
2022-09-24T09:10:29.501Z,67.27
2022-09-24T09:13:25.316Z,67.64
2022-09-24T09:17:03.625Z,67.44
2022-09-24T09:19:40.399Z,67.37
2022-09-24T09:22:19.316Z,67.37
2022-09-24T09:25:01.244Z,67.22
2022-09-24T09:27:35.103Z,67.06
2022-09-24T09:30:13.918Z,66.80
2022-09-24T09:33:19.721Z,66.94
2022-09-24T09:36:34.381Z,66.67
2022-09-24T09:39:27.133Z,66.52
2022-09-24T09:42:27.708Z,66.15
2022-09-24T09:49:37.648Z,65.91
2022-09-24T09:52:29.341Z,65.71
2022-09-24T09:55:01.059Z,66.27
2022-09-24T09:57:31.878Z,65.88
2022-09-24T10:00:04.785Z,65.75
2022-09-24T10:02:45.708Z,65.73
2022-09-24T10:05:27.238Z,65.25
2022-09-24T10:07:59.231Z,65.10
2022-09-24T10:10:33.172Z,65.01
2022-09-24T10:13:14.052Z,65.17
2022-09-24T10:15:53.555Z,65.38
2022-09-24T10:18:32.028Z,65.13
2022-09-24T10:21:08.828Z,64.98
2022-09-24T10:23:45.633Z,64.65
2022-09-24T10:26:16.844Z,64.51
2022-09-24T10:29:13.570Z,64.43
2022-09-24T10:31:48.229Z,64.33
2022-09-24T10:34:28.805Z,64.16
2022-09-24T10:37:15.554Z,64.36
2022-09-24T10:39:46.230Z,64.38
2022-09-24T10:42:28.104Z,64.45
2022-09-24T10:45:04.095Z,64.34
2022-09-24T10:48:00.293Z,64.17
2022-09-24T10:50:37.018Z,63.50
2022-09-24T10:53:22.088Z,63.20
2022-09-24T10:56:06.937Z,63.19
2022-09-24T10:58:45.838Z,63.30
2022-09-24T11:01:45.632Z,63.06
2022-09-24T11:04:40.972Z,62.97
2022-09-24T11:07:23.461Z,63.05
2022-09-24T11:10:03.672Z,62.99
2022-09-24T11:13:51.525Z,62.74
2022-09-24T11:16:46.077Z,62.16
2022-09-24T11:19:52.620Z,62.34
2022-09-24T11:22:37.635Z,61.85
2022-09-24T11:25:43.002Z,61.87
2022-09-24T11:28:26.048Z,61.80
2022-09-24T11:31:20.643Z,61.48
2022-09-24T11:34:17.589Z,61.26
2022-09-24T11:37:02.540Z,61.22
2022-09-24T11:40:16.569Z,61.41
2022-09-24T11:43:34.256Z,61.48
2022-09-24T11:46:30.710Z,61.69
2022-09-24T11:49:53.759Z,61.65
2022-09-24T11:52:47.247Z,62.04
2022-09-24T11:55:32.046Z,62.04
2022-09-24T11:58:18.543Z,62.14
2022-09-24T12:11:41.738Z,62.02
2022-09-24T12:14:42.341Z,62.39
2022-09-24T12:20:37.831Z,62.13
2022-09-24T12:23:15.143Z,61.82
2022-09-24T12:25:49.541Z,61.34
2022-09-24T12:28:38.849Z,60.70
2022-09-24T12:31:40.635Z,60.46
2022-09-24T12:34:16.586Z,60.57
2022-09-24T12:36:58.947Z,61.09
2022-09-24T12:39:48.732Z,61.45
2022-09-24T12:42:23.118Z,61.16
2022-09-24T12:45:01.117Z,61.50
2022-09-24T12:47:34.802Z,61.57
2022-09-24T12:50:09.964Z,61.58
2022-09-24T12:52:44.853Z,61.42
2022-09-24T12:56:03.395Z,61.41
2022-09-24T12:59:30.100Z,61.53
2022-09-24T13:06:40.005Z,61.46
2022-09-24T13:09:40.445Z,61.60
2022-09-24T13:12:19.519Z,61.69
2022-09-24T13:14:57.050Z,61.73
2022-09-24T13:17:27.460Z,61.91
2022-09-24T13:20:09.692Z,62.06
2022-09-24T13:22:43.218Z,61.93
2022-09-24T13:25:16.176Z,62.16
2022-09-24T13:27:58.904Z,62.17
2022-09-24T13:30:31.802Z,62.22
2022-09-24T13:33:11.088Z,62.40
2022-09-24T13:35:48.692Z,61.82
2022-09-24T13:38:28.902Z,61.99
2022-09-24T13:41:16.628Z,62.42
2022-09-24T13:44:17.893Z,62.31
2022-09-24T13:46:51.959Z,62.17
2022-09-24T13:49:25.071Z,62.38
2022-09-24T13:52:19.105Z,62.15
2022-09-24T13:54:53.758Z,61.39
2022-09-24T13:57:26.933Z,61.03
2022-09-24T14:00:20.240Z,60.98
2022-09-24T14:03:22.492Z,61.17
2022-09-24T14:05:52.942Z,61.71
2022-09-24T14:08:24.979Z,61.17
2022-09-24T14:11:08.435Z,61.49
2022-09-24T14:13:47.410Z,60.97
2022-09-24T14:16:20.171Z,60.90
2022-09-24T14:19:16.444Z,60.58
2022-09-24T14:21:56.677Z,60.85
2022-09-24T14:24:31.819Z,60.45
2022-09-24T14:27:09.489Z,60.57
2022-09-24T14:29:48.619Z,61.05
2022-09-24T14:32:37.464Z,61.17
2022-09-24T14:35:10.840Z,60.72
2022-09-24T14:37:47.958Z,60.87
2022-09-24T14:40:21.805Z,60.61
2022-09-24T14:43:03.850Z,60.83
2022-09-24T14:50:30.205Z,60.32
2022-09-24T14:53:01.269Z,60.90
2022-09-24T14:55:43.380Z,61.10
2022-09-24T14:58:33.996Z,61.11
2022-09-24T15:01:08.726Z,61.32
2022-09-24T15:03:58.834Z,61.46
2022-09-24T15:06:34.480Z,61.29
2022-09-24T15:09:09.428Z,61.39
2022-09-24T15:11:49.291Z,61.54
2022-09-24T15:14:28.833Z,61.57
2022-09-24T15:17:25.980Z,61.68
2022-09-24T15:19:58.413Z,61.65
2022-09-24T15:22:31.168Z,61.75
2022-09-24T15:25:02.811Z,61.73
2022-09-24T15:27:36.284Z,61.70
2022-09-24T15:30:16.749Z,61.86
2022-09-24T15:32:51.666Z,61.87
2022-09-24T15:35:22.117Z,61.96
2022-09-24T15:37:53.039Z,61.93
2022-09-24T15:40:31.285Z,62.05
2022-09-24T15:43:01.728Z,61.93
2022-09-24T15:45:32.744Z,62.05
2022-09-24T15:48:03.112Z,62.02
2022-09-24T15:50:35.397Z,62.04
2022-09-24T15:53:06.838Z,61.97
2022-09-24T15:55:39.161Z,62.15
2022-09-24T15:58:19.476Z,62.24
2022-09-24T16:00:52.621Z,62.17
2022-09-24T16:03:28.183Z,62.15
2022-09-24T16:06:00.928Z,62.22
2022-09-24T16:08:31.989Z,62.03
2022-09-24T16:11:09.073Z,61.94
2022-09-24T16:13:42.761Z,62.26
2022-09-24T16:16:17.878Z,62.14
2022-09-24T16:18:51.813Z,62.15
2022-09-24T16:21:23.186Z,62.19
2022-09-24T16:24:01.309Z,61.99
2022-09-24T16:26:32.803Z,62.27
2022-09-24T16:29:06.099Z,62.13
2022-09-24T16:31:37.882Z,62.46
2022-09-24T16:34:08.907Z,62.28
2022-09-24T16:36:39.813Z,62.48
2022-09-24T16:39:14.201Z,62.25
2022-09-24T16:41:45.126Z,62.35
2022-09-24T16:44:16.224Z,62.17
2022-09-24T16:46:57.010Z,62.34
2022-09-24T16:49:52.292Z,62.08
2022-09-24T16:52:35.331Z,62.21
2022-09-24T16:55:06.198Z,62.18
2022-09-24T16:57:42.187Z,62.18
2022-09-24T17:00:39.489Z,62.26
2022-09-24T17:03:20.278Z,62.05
2022-09-24T17:06:23.219Z,62.21
2022-09-24T17:09:47.784Z,62.02
2022-09-24T17:15:39.936Z,62.08
2022-09-24T17:18:17.517Z,62.23
2022-09-24T17:21:04.133Z,62.45
2022-09-24T17:24:02.537Z,62.31
2022-09-24T17:26:37.694Z,62.32
2022-09-24T17:29:27.735Z,62.38
2022-09-24T17:32:12.542Z,62.42
2022-09-24T17:34:49.455Z,62.50
2022-09-24T17:38:30.988Z,62.35
2022-09-24T17:41:04.965Z,62.49
2022-09-24T17:43:39.090Z,62.39
2022-09-24T17:46:22.970Z,62.41
2022-09-24T17:49:04.899Z,62.42
2022-09-24T17:56:34.828Z,62.21
2022-09-24T17:59:18.853Z,62.19
2022-09-24T18:02:09.881Z,62.28
2022-09-24T18:04:44.274Z,62.39
2022-09-24T18:07:33.875Z,62.48
2022-09-24T18:10:18.990Z,62.46
2022-09-24T18:14:13.697Z,62.40
2022-09-24T18:16:57.909Z,62.33
2022-09-24T18:19:41.523Z,62.20
2022-09-24T18:22:49.806Z,62.28
2022-09-24T18:25:30.492Z,62.16
2022-09-24T18:28:09.168Z,62.40
2022-09-24T18:30:43.788Z,62.28
2022-09-24T18:33:14.008Z,62.43
2022-09-24T18:35:44.921Z,62.21
2022-09-24T18:38:58.342Z,62.32
2022-09-24T18:41:31.381Z,62.44
2022-09-24T18:44:04.138Z,62.35
2022-09-24T18:51:07.542Z,62.12
2022-09-24T18:55:09.778Z,62.30
2022-09-24T18:57:43.827Z,62.37
2022-09-24T19:00:30.516Z,62.41
2022-09-24T19:03:01.730Z,62.29
2022-09-24T19:05:32.595Z,62.44
2022-09-24T19:08:03.428Z,62.39
2022-09-24T19:10:35.279Z,62.49
2022-09-24T19:18:18.599Z,62.41
2022-09-24T19:20:50.844Z,62.27
2022-09-24T19:23:25.096Z,62.33
2022-09-24T19:26:03.326Z,62.39
2022-09-24T19:28:36.185Z,62.27
2022-09-24T19:31:15.550Z,62.30
2022-09-24T19:33:47.446Z,62.24
2022-09-24T19:36:19.227Z,62.35
2022-09-24T19:38:54.376Z,62.21
2022-09-24T19:41:27.408Z,62.34
2022-09-24T19:44:09.099Z,62.38
2022-09-24T19:46:41.745Z,62.21
2022-09-24T19:49:14.042Z,62.21
2022-09-24T19:51:44.822Z,62.26
2022-09-24T19:54:15.477Z,62.38
2022-09-24T19:56:46.894Z,62.35
2022-09-24T19:59:17.059Z,62.53
2022-09-24T20:01:50.415Z,62.41
2022-09-24T20:04:21.189Z,62.41
2022-09-24T20:06:53.330Z,62.28
2022-09-24T20:09:24.192Z,62.33
2022-09-24T20:12:17.619Z,62.30
2022-09-24T20:14:48.417Z,62.30
2022-09-24T20:17:30.776Z,62.37
2022-09-24T20:20:03.338Z,62.32
2022-09-24T20:22:35.095Z,62.34
2022-09-24T20:25:11.261Z,62.20
2022-09-24T20:27:56.234Z,62.36
2022-09-24T20:30:27.962Z,62.35
2022-09-24T20:33:01.114Z,62.25
2022-09-24T20:35:36.429Z,62.31
2022-09-24T20:38:10.987Z,62.26
2022-09-24T20:40:46.107Z,62.30
2022-09-24T20:43:18.366Z,62.31
2022-09-24T20:45:48.815Z,62.25
2022-09-24T20:48:25.073Z,62.29
2022-09-24T20:51:00.314Z,62.54
2022-09-24T20:53:31.128Z,62.31
2022-09-24T20:56:05.368Z,62.40
2022-09-24T20:58:38.539Z,62.45
2022-09-24T21:01:14.921Z,62.50
2022-09-24T21:03:50.337Z,62.45
2022-09-24T21:06:23.380Z,62.54
2022-09-24T21:08:56.431Z,62.41
2022-09-24T21:11:29.999Z,62.29
2022-09-24T21:14:03.275Z,62.37
2022-09-24T21:16:36.010Z,62.30
2022-09-24T21:19:12.802Z,62.37
2022-09-24T21:21:48.048Z,62.46
2022-09-24T21:24:26.344Z,62.47
2022-09-24T21:27:00.837Z,62.43
2022-09-24T21:29:32.216Z,62.44
2022-09-24T21:32:05.572Z,62.46
2022-09-24T21:34:44.929Z,62.62
2022-09-24T21:37:16.653Z,62.62
2022-09-24T21:39:48.148Z,62.61
2022-09-24T21:42:18.751Z,62.59
2022-09-24T21:44:49.666Z,62.42
2022-09-24T21:47:22.632Z,62.43
2022-09-24T21:49:53.863Z,62.64
2022-09-24T21:52:24.791Z,62.57
2022-09-24T21:54:55.016Z,62.71
2022-09-24T21:57:26.119Z,62.65
2022-09-24T22:00:10.396Z,62.59
2022-09-24T22:02:43.514Z,62.62
2022-09-24T22:05:20.334Z,62.84
2022-09-24T22:07:51.340Z,62.64
2022-09-24T22:10:21.720Z,62.70
2022-09-24T22:12:52.311Z,62.88
2022-09-24T22:15:23.300Z,62.85
2022-09-24T22:17:53.938Z,62.75
2022-09-24T22:20:24.269Z,62.88
2022-09-24T22:22:54.661Z,62.99
2022-09-24T22:25:25.136Z,62.87
2022-09-24T22:27:55.643Z,62.92
2022-09-24T22:30:26.246Z,62.86
2022-09-24T22:33:00.033Z,62.94
2022-09-24T22:35:50.971Z,62.93
2022-09-24T22:38:21.402Z,62.88
2022-09-24T22:40:52.495Z,62.86
2022-09-24T22:43:23.111Z,62.94
2022-09-24T22:46:02.808Z,62.90
2022-09-24T22:48:34.646Z,63.04
2022-09-24T22:51:06.490Z,63.13
2022-09-24T22:53:39.093Z,63.06
2022-09-24T22:56:17.573Z,63.10
2022-09-24T22:58:53.536Z,63.22
2022-09-24T23:01:29.724Z,63.18
2022-09-24T23:04:00.809Z,63.23
2022-09-24T23:06:33.320Z,63.11
2022-09-24T23:09:05.826Z,63.22
2022-09-24T23:11:40.412Z,63.26
2022-09-24T23:14:17.295Z,63.38
2022-09-24T23:16:48.225Z,63.18
2022-09-24T23:19:21.337Z,63.04
2022-09-24T23:21:51.865Z,63.30
2022-09-24T23:24:22.834Z,63.35
2022-09-24T23:26:57.425Z,63.54
2022-09-24T23:29:27.799Z,63.46
2022-09-24T23:31:58.315Z,63.55
2022-09-24T23:34:28.895Z,63.41
2022-09-24T23:36:59.370Z,63.48
2022-09-24T23:39:30.098Z,63.42
2022-09-24T23:42:00.711Z,63.73
2022-09-24T23:44:31.218Z,63.62
2022-09-24T23:47:04.781Z,63.55
2022-09-24T23:49:35.285Z,63.54
2022-09-24T23:52:06.276Z,63.72
2022-09-24T23:54:42.504Z,63.82
2022-09-24T23:57:12.866Z,63.72
2022-09-24T23:59:43.253Z,63.73
